createdAt,value
2024-01-07T00:02:27.835Z,2.30
2024-01-07T00:04:55.997Z,3.60
2024-01-07T00:07:24.135Z,3.40
2024-01-07T00:09:52.192Z,3.20
2024-01-07T00:12:20.096Z,2.10
2024-01-07T00:14:48.114Z,4.10
2024-01-07T00:17:16.178Z,4.40
2024-01-07T00:19:44.236Z,5.00
2024-01-07T00:22:12.338Z,4.40
2024-01-07T00:24:40.378Z,3.50
2024-01-07T00:27:09.961Z,2.30
2024-01-07T00:29:38.442Z,3.20
2024-01-07T00:32:07.124Z,4.40
2024-01-07T00:34:35.455Z,4.10
2024-01-07T00:37:03.848Z,3.50
2024-01-07T00:39:32.127Z,2.00
2024-01-07T00:42:00.225Z,1.60
2024-01-07T00:44:28.394Z,2.90
2024-01-07T00:46:56.325Z,2.80
2024-01-07T00:49:24.988Z,3.90
2024-01-07T00:51:53.118Z,3.70
2024-01-07T00:54:21.180Z,4.50
2024-01-07T00:56:49.253Z,2.20
2024-01-07T00:59:17.452Z,2.70
2024-01-07T01:01:45.583Z,2.90
2024-01-07T01:04:13.770Z,3.30
2024-01-07T01:06:42.960Z,2.20
2024-01-07T01:09:11.141Z,1.30
2024-01-07T01:11:40.721Z,2.10
2024-01-07T01:14:08.749Z,1.90
2024-01-07T01:16:36.704Z,3.10
2024-01-07T01:19:04.779Z,2.20
2024-01-07T01:21:32.923Z,2.10
2024-01-07T01:24:01.450Z,1.10
2024-01-07T01:26:29.619Z,1.30
2024-01-07T01:28:57.724Z,1.70
2024-01-07T01:31:25.854Z,2.00
2024-01-07T01:33:54.012Z,2.40
2024-01-07T01:36:22.435Z,2.10
2024-01-07T01:38:50.532Z,2.00
2024-01-07T01:41:18.512Z,2.50
2024-01-07T01:43:46.476Z,1.90
2024-01-07T01:46:14.992Z,1.50
2024-01-07T01:48:44.363Z,1.70
2024-01-07T01:51:12.693Z,2.40
2024-01-07T01:53:41.211Z,1.60
2024-01-07T01:56:09.512Z,2.90
2024-01-07T01:58:38.281Z,1.90
2024-01-07T02:01:06.712Z,1.70
2024-01-07T02:03:34.866Z,1.70
2024-01-07T02:06:03.489Z,2.50
2024-01-07T02:08:31.780Z,2.00
2024-01-07T02:10:59.741Z,1.60
2024-01-07T02:13:27.742Z,1.30
2024-01-07T02:15:55.885Z,1.10
2024-01-07T02:18:24.148Z,1.40
2024-01-07T02:20:52.324Z,1.40
2024-01-07T02:23:20.407Z,1.90
2024-01-07T02:25:48.470Z,1.60
2024-01-07T02:28:16.781Z,0.90
2024-01-07T02:30:44.793Z,2.00
2024-01-07T02:33:13.074Z,1.90
2024-01-07T02:35:41.307Z,1.80
2024-01-07T02:38:09.361Z,1.20
2024-01-07T02:40:37.256Z,1.80
2024-01-07T02:43:05.562Z,2.60
2024-01-07T02:45:33.513Z,2.00
2024-01-07T02:48:01.924Z,1.30
2024-01-07T02:50:29.812Z,1.90
2024-01-07T02:52:58.212Z,1.20
2024-01-07T02:55:26.107Z,1.30
2024-01-07T02:57:54.178Z,1.40
2024-01-07T03:00:22.308Z,0.90
2024-01-07T03:02:50.335Z,1.00
2024-01-07T03:05:18.356Z,1.00
2024-01-07T03:07:46.268Z,1.20
2024-01-07T03:10:14.367Z,0.80
2024-01-07T03:12:42.748Z,1.00
2024-01-07T03:15:10.765Z,1.20
2024-01-07T03:17:38.912Z,1.10
2024-01-07T03:20:08.298Z,1.00
2024-01-07T03:22:36.810Z,0.80
2024-01-07T03:25:05.841Z,1.10
2024-01-07T03:27:33.829Z,1.20
2024-01-07T03:30:01.863Z,0.80
2024-01-07T03:32:29.994Z,1.30
2024-01-07T03:34:58.226Z,0.60
2024-01-07T03:37:26.302Z,1.50
2024-01-07T03:39:54.355Z,1.10
2024-01-07T03:42:22.642Z,1.60
2024-01-07T03:44:50.517Z,1.40
2024-01-07T03:47:18.515Z,1.10
2024-01-07T03:49:46.640Z,1.50
2024-01-07T03:52:14.866Z,1.00
2024-01-07T03:54:42.869Z,1.70
2024-01-07T03:57:10.814Z,1.10
2024-01-07T03:59:38.881Z,1.40
2024-01-07T04:02:08.412Z,1.30
2024-01-07T04:04:36.971Z,1.50
2024-01-07T04:07:05.170Z,0.80
2024-01-07T04:09:33.519Z,0.80
2024-01-07T04:12:01.597Z,0.80
2024-01-07T04:14:30.682Z,1.10
2024-01-07T04:16:58.691Z,1.50
2024-01-07T04:19:26.722Z,1.30
2024-01-07T04:21:54.900Z,1.70
2024-01-07T04:24:22.976Z,1.30
2024-01-07T04:26:50.921Z,1.30
2024-01-07T04:29:19.010Z,1.00
2024-01-07T04:31:47.136Z,1.30
2024-01-07T04:34:15.453Z,1.30
2024-01-07T04:36:43.462Z,2.90
2024-01-07T04:39:11.757Z,1.90
2024-01-07T04:41:39.762Z,1.60
2024-01-07T04:44:07.756Z,0.80
2024-01-07T04:46:39.023Z,1.20
2024-01-07T04:49:08.029Z,0.60
2024-01-07T04:51:37.866Z,1.00
2024-01-07T04:54:07.124Z,1.10
2024-01-07T04:56:35.209Z,0.50
2024-01-07T04:59:03.148Z,1.50
2024-01-07T05:01:33.981Z,1.10
2024-01-07T05:04:03.732Z,1.30
2024-01-07T05:06:31.794Z,1.20
2024-01-07T05:08:59.915Z,1.10
2024-01-07T05:11:28.302Z,1.10
2024-01-07T05:13:56.315Z,0.60
2024-01-07T05:16:24.406Z,1.30
2024-01-07T05:18:52.506Z,0.80
2024-01-07T05:21:20.599Z,0.70
2024-01-07T05:23:48.679Z,0.70
2024-01-07T05:26:16.681Z,0.60
2024-01-07T05:28:44.645Z,0.80
2024-01-07T05:31:19.714Z,0.70
2024-01-07T05:33:48.199Z,0.60
2024-01-07T05:36:16.310Z,0.90
2024-01-07T05:38:44.375Z,1.00
2024-01-07T05:41:12.839Z,1.20
2024-01-07T05:43:40.873Z,0.60
2024-01-07T05:46:08.934Z,0.50
2024-01-07T05:48:49.217Z,0.50
2024-01-07T05:51:18.451Z,1.00
2024-01-07T05:53:47.495Z,0.80
2024-01-07T05:56:15.664Z,0.60
2024-01-07T05:58:43.657Z,1.10
2024-01-07T06:01:11.880Z,1.00
2024-01-07T06:03:40.205Z,0.80
2024-01-07T06:06:08.382Z,0.60
2024-01-07T06:08:36.380Z,0.60
2024-01-07T06:11:04.591Z,0.70
2024-01-07T06:13:32.579Z,0.60
2024-01-07T06:16:00.552Z,0.80
2024-01-07T06:18:28.889Z,0.90
2024-01-07T06:20:57.332Z,0.50
2024-01-07T06:23:25.337Z,0.70
2024-01-07T06:25:53.367Z,0.40
2024-01-07T06:28:22.113Z,0.40
2024-01-07T06:30:50.154Z,0.80
2024-01-07T06:33:18.242Z,0.60
2024-01-07T06:35:46.273Z,0.60
2024-01-07T06:38:14.376Z,0.70
2024-01-07T06:40:42.481Z,0.50
2024-01-07T06:43:10.579Z,0.80
2024-01-07T06:45:38.874Z,0.90
2024-01-07T06:48:08.124Z,1.00
2024-01-07T06:50:36.142Z,0.70
2024-01-07T06:53:04.480Z,0.90
2024-01-07T06:55:32.473Z,1.50
2024-01-07T06:58:00.531Z,1.10
2024-01-07T07:00:28.597Z,0.80
2024-01-07T07:02:56.729Z,0.70
2024-01-07T07:05:24.741Z,1.20
2024-01-07T07:07:55.478Z,1.00
2024-01-07T07:10:24.000Z,1.10
2024-01-07T07:12:52.774Z,1.60
2024-01-07T07:15:20.892Z,1.80
2024-01-07T07:17:48.920Z,1.00
2024-01-07T07:20:17.198Z,1.40
2024-01-07T07:22:45.322Z,1.30
2024-01-07T07:25:13.449Z,1.10
2024-01-07T07:27:41.561Z,1.70
2024-01-07T07:30:09.844Z,1.70
2024-01-07T07:32:42.539Z,1.00
2024-01-07T07:35:10.498Z,1.10
2024-01-07T07:37:39.418Z,1.40
2024-01-07T07:40:08.353Z,1.60
2024-01-07T07:42:36.501Z,0.80
2024-01-07T07:45:05.596Z,1.20
2024-01-07T07:47:33.600Z,0.80
2024-01-07T07:50:03.480Z,1.90
2024-01-07T07:52:31.617Z,0.90
2024-01-07T07:54:59.855Z,4.70
2024-01-07T07:57:27.866Z,1.90
2024-01-07T07:59:56.368Z,2.20
2024-01-07T08:02:24.439Z,2.80
2024-01-07T08:04:52.768Z,3.00
2024-01-07T08:07:20.688Z,4.80
2024-01-07T08:09:48.663Z,3.90
2024-01-07T08:12:16.712Z,4.10
2024-01-07T08:14:44.737Z,2.90
2024-01-07T08:17:12.749Z,1.90
2024-01-07T08:19:40.881Z,2.50
2024-01-07T08:22:10.644Z,2.10
2024-01-07T08:24:39.030Z,2.50
2024-01-07T08:27:06.953Z,1.40
2024-01-07T08:29:35.033Z,2.30
2024-01-07T08:32:03.290Z,2.10
2024-01-07T08:34:31.531Z,2.00
2024-01-07T08:36:59.689Z,2.40
2024-01-07T08:39:29.875Z,0.90
2024-01-07T08:41:58.042Z,1.90
2024-01-07T08:44:25.941Z,1.80
2024-01-07T08:46:53.927Z,2.50
2024-01-07T08:49:22.246Z,4.50
2024-01-07T08:51:50.387Z,4.80
2024-01-07T08:54:18.467Z,11.90
2024-01-07T08:56:46.982Z,29.20
2024-01-07T08:59:14.990Z,10.50
2024-01-07T09:01:43.156Z,5.50
2024-01-07T09:04:11.287Z,7.50
2024-01-07T09:06:39.918Z,8.40
2024-01-07T09:09:08.055Z,8.30
2024-01-07T09:11:36.934Z,5.70
2024-01-07T09:14:04.921Z,4.60
2024-01-07T09:16:32.848Z,6.00
2024-01-07T09:19:01.083Z,5.80
2024-01-07T09:21:29.282Z,7.40
2024-01-07T09:23:57.463Z,5.50
2024-01-07T09:26:25.359Z,8.30
2024-01-07T09:28:53.281Z,5.70
2024-01-07T09:31:21.307Z,2.80
2024-01-07T09:33:49.507Z,1.40
2024-01-07T09:36:26.407Z,2.00
2024-01-07T09:38:58.384Z,1.30
2024-01-07T09:41:27.247Z,2.50
2024-01-07T09:43:55.499Z,2.50
2024-01-07T09:46:23.967Z,2.70
2024-01-07T09:48:53.031Z,3.30
2024-01-07T09:51:24.960Z,1.70
2024-01-07T09:54:00.086Z,2.30
2024-01-07T09:56:36.449Z,2.80
2024-01-07T09:59:04.538Z,4.00
2024-01-07T10:01:32.997Z,3.30
2024-01-07T10:04:01.425Z,4.30
2024-01-07T10:06:29.997Z,2.60
2024-01-07T10:08:59.393Z,1.90
2024-01-07T10:11:27.363Z,2.00
2024-01-07T10:13:55.714Z,2.30
2024-01-07T10:16:23.704Z,5.90
2024-01-07T10:18:52.080Z,3.90
2024-01-07T10:21:20.206Z,3.00
2024-01-07T10:23:48.616Z,2.20
2024-01-07T10:26:23.880Z,1.70
2024-01-07T10:28:56.186Z,3.50
2024-01-07T10:31:24.534Z,3.00
2024-01-07T10:33:54.465Z,4.30
2024-01-07T10:36:23.197Z,3.30
2024-01-07T10:38:51.724Z,2.70
2024-01-07T10:41:20.598Z,3.90
2024-01-07T10:43:50.072Z,3.10
2024-01-07T10:46:18.708Z,2.80
2024-01-07T10:49:05.871Z,2.90
2024-01-07T10:51:36.435Z,1.80
2024-01-07T10:54:04.889Z,2.70
2024-01-07T10:57:03.344Z,1.90
2024-01-07T10:59:33.366Z,2.40
2024-01-07T11:02:03.996Z,1.70
2024-01-07T11:04:54.527Z,1.50
2024-01-07T11:07:50.923Z,1.80
2024-01-07T11:10:35.156Z,2.90
2024-01-07T11:13:06.954Z,3.00
2024-01-07T11:15:54.435Z,2.90
2024-01-07T11:18:24.778Z,4.40
2024-01-07T11:20:54.380Z,3.40
2024-01-07T11:23:47.618Z,3.80
2024-01-07T11:26:15.877Z,3.10
2024-01-07T11:28:58.310Z,3.70
2024-01-07T11:31:48.512Z,3.90
2024-01-07T11:34:48.936Z,2.90
2024-01-07T11:37:17.397Z,1.40
2024-01-07T11:39:47.197Z,2.00
2024-01-07T11:42:15.534Z,2.00
2024-01-07T11:44:52.793Z,1.90
2024-01-07T11:47:22.995Z,2.20
2024-01-07T11:49:51.473Z,2.20
2024-01-07T11:52:21.294Z,2.20
2024-01-07T11:54:50.255Z,2.40
2024-01-07T11:57:19.061Z,2.20
2024-01-07T11:59:47.552Z,1.80
2024-01-07T12:02:16.519Z,1.80
2024-01-07T12:04:45.168Z,1.30
2024-01-07T12:07:16.079Z,3.50
2024-01-07T12:09:44.941Z,2.00
2024-01-07T12:12:13.528Z,1.70
2024-01-07T12:14:42.076Z,2.60
2024-01-07T12:17:13.895Z,2.20
2024-01-07T12:19:42.983Z,2.30
2024-01-07T12:22:11.457Z,2.30
2024-01-07T12:24:39.648Z,3.00
2024-01-07T12:27:08.503Z,1.80
2024-01-07T12:29:36.494Z,2.50
2024-01-07T12:32:06.551Z,1.50
2024-01-07T12:34:34.785Z,2.40
2024-01-07T12:37:03.716Z,3.10
2024-01-07T12:39:31.989Z,2.50
2024-01-07T12:42:00.140Z,2.70
2024-01-07T12:44:29.870Z,3.10
2024-01-07T12:46:58.108Z,3.30
2024-01-07T12:49:26.336Z,2.10
2024-01-07T12:51:55.232Z,2.90
2024-01-07T12:54:24.978Z,2.20
2024-01-07T12:56:53.162Z,2.90
2024-01-07T12:59:21.170Z,3.10
2024-01-07T13:01:49.540Z,2.00
2024-01-07T13:04:18.689Z,3.00
2024-01-07T13:06:47.072Z,3.00
2024-01-07T13:09:15.660Z,3.40
2024-01-07T13:11:43.832Z,2.30
2024-01-07T13:14:12.029Z,2.50
2024-01-07T13:16:40.207Z,2.50
2024-01-07T13:19:10.094Z,2.60
2024-01-07T13:21:42.642Z,3.80
2024-01-07T13:24:11.220Z,5.60
2024-01-07T13:26:39.548Z,3.40
2024-01-07T13:29:07.668Z,5.10
2024-01-07T13:31:35.684Z,3.40
2024-01-07T13:34:05.009Z,5.70
2024-01-07T13:36:33.205Z,4.30
2024-01-07T13:39:01.257Z,4.20
2024-01-07T13:41:33.740Z,2.10
2024-01-07T13:44:04.379Z,3.70
2024-01-07T13:46:32.517Z,3.60
2024-01-07T13:49:01.759Z,3.30
2024-01-07T13:51:30.021Z,7.30
2024-01-07T13:53:59.446Z,4.40
2024-01-07T13:56:27.916Z,4.20
2024-01-07T13:58:57.348Z,5.10
2024-01-07T14:01:25.556Z,5.80
2024-01-07T14:03:53.679Z,3.30
2024-01-07T14:06:22.601Z,3.10
2024-01-07T14:08:50.574Z,4.10
2024-01-07T14:11:19.711Z,2.80
2024-01-07T14:13:48.168Z,2.60
2024-01-07T14:16:16.299Z,3.60
2024-01-07T14:18:44.452Z,7.90
2024-01-07T14:21:12.647Z,3.20
2024-01-07T14:23:40.684Z,2.30
2024-01-07T14:26:08.763Z,2.70
2024-01-07T14:28:36.965Z,2.90
2024-01-07T14:31:05.631Z,1.80
2024-01-07T14:33:34.440Z,6.60
2024-01-07T14:36:05.513Z,1.70
2024-01-07T14:38:33.994Z,3.80
2024-01-07T14:41:02.143Z,5.80
2024-01-07T14:43:30.827Z,4.10
2024-01-07T14:45:58.999Z,2.10
2024-01-07T14:48:27.104Z,3.00
2024-01-07T14:50:55.252Z,4.30
2024-01-07T14:53:23.367Z,4.60
2024-01-07T14:55:52.511Z,3.90
2024-01-07T14:58:22.535Z,2.80
2024-01-07T15:00:51.202Z,2.30
2024-01-07T15:03:20.905Z,3.50
2024-01-07T15:05:49.138Z,2.80
2024-01-07T15:08:17.243Z,4.90
2024-01-07T15:10:45.586Z,4.90
2024-01-07T15:13:18.235Z,3.80
2024-01-07T15:15:48.932Z,3.30
2024-01-07T15:18:17.664Z,3.10
2024-01-07T15:20:46.076Z,2.90
2024-01-07T15:23:14.251Z,3.20
2024-01-07T15:25:42.681Z,4.10
2024-01-07T15:28:10.716Z,3.80
2024-01-07T15:30:39.042Z,6.90
2024-01-07T15:33:07.203Z,7.50
2024-01-07T15:35:35.197Z,5.70
2024-01-07T15:38:03.562Z,2.50
2024-01-07T15:40:32.067Z,2.50
2024-01-07T15:43:00.994Z,2.40
2024-01-07T15:45:29.292Z,2.70
2024-01-07T15:47:57.614Z,3.40
2024-01-07T15:50:27.042Z,3.80
2024-01-07T15:52:57.199Z,3.30
2024-01-07T15:55:25.317Z,2.30
2024-01-07T15:57:53.540Z,2.20
2024-01-07T16:00:21.991Z,2.80
2024-01-07T16:02:50.344Z,2.90
2024-01-07T16:05:19.601Z,3.40
2024-01-07T16:07:47.958Z,2.60
2024-01-07T16:10:16.364Z,1.50
2024-01-07T16:12:44.601Z,1.90
2024-01-07T16:15:12.946Z,3.20
2024-01-07T16:17:43.797Z,2.60
2024-01-07T16:20:14.074Z,2.80
2024-01-07T16:22:42.516Z,2.10
2024-01-07T16:25:10.694Z,2.90
2024-01-07T16:27:39.563Z,1.80
2024-01-07T16:30:09.912Z,3.30
2024-01-07T16:32:38.450Z,4.10
2024-01-07T16:35:07.398Z,3.10
2024-01-07T16:37:35.619Z,2.30
2024-01-07T16:40:05.186Z,2.80
2024-01-07T16:42:33.436Z,1.70
2024-01-07T16:45:02.380Z,3.80
2024-01-07T16:47:30.501Z,1.90
2024-01-07T16:52:29.952Z,3.00
2024-01-07T16:54:58.175Z,3.10
2024-01-07T16:57:26.228Z,2.80
2024-01-07T16:59:54.321Z,3.20
2024-01-07T17:02:22.596Z,3.50
2024-01-07T17:04:51.125Z,3.90
2024-01-07T17:07:22.398Z,1.90
2024-01-07T17:09:50.427Z,3.10
2024-01-07T17:12:18.435Z,2.20
2024-01-07T17:14:47.149Z,2.40
2024-01-07T17:17:15.238Z,2.80
2024-01-07T17:19:43.786Z,1.80
2024-01-07T17:22:12.171Z,2.50
2024-01-07T17:24:41.814Z,3.00
2024-01-07T17:27:09.955Z,2.70
2024-01-07T17:29:38.048Z,4.40
2024-01-07T17:32:06.670Z,4.60
2024-01-07T17:34:34.836Z,5.00
2024-01-07T17:37:04.455Z,2.40
2024-01-07T17:39:34.687Z,2.20
2024-01-07T17:42:07.065Z,2.40
2024-01-07T17:44:35.158Z,1.40
2024-01-07T17:47:03.384Z,2.50
2024-01-07T17:49:31.982Z,2.90
2024-01-07T17:52:00.224Z,2.50
2024-01-07T17:54:28.520Z,3.20
2024-01-07T17:56:56.576Z,2.80
2024-01-07T17:59:24.693Z,10.20
2024-01-07T18:01:54.180Z,3.10
2024-01-07T18:04:22.418Z,3.20
2024-01-07T18:06:50.397Z,2.30
2024-01-07T18:09:18.445Z,2.30
2024-01-07T18:11:46.526Z,2.20
2024-01-07T18:14:15.743Z,1.40
2024-01-07T18:16:44.370Z,1.90
2024-01-07T18:19:12.656Z,2.40
2024-01-07T18:21:41.183Z,2.00
2024-01-07T18:24:11.193Z,2.20
2024-01-07T18:26:39.160Z,3.20
2024-01-07T18:29:10.924Z,5.50
2024-01-07T18:31:43.048Z,3.00
2024-01-07T18:34:12.065Z,2.40
2024-01-07T18:36:41.736Z,3.10
2024-01-07T18:39:10.143Z,3.10
2024-01-07T18:41:38.709Z,2.90
2024-01-07T18:44:08.629Z,3.70
2024-01-07T18:46:37.048Z,3.60
2024-01-07T18:49:05.304Z,3.30
2024-01-07T18:51:33.365Z,4.10
2024-01-07T18:54:01.487Z,3.70
2024-01-07T18:56:30.081Z,2.90
2024-01-07T18:58:58.426Z,4.00
2024-01-07T19:01:28.606Z,4.00
2024-01-07T19:03:56.924Z,3.00
2024-01-07T19:06:24.942Z,2.50
2024-01-07T19:08:54.135Z,1.80
2024-01-07T19:11:22.471Z,4.00
2024-01-07T19:13:50.768Z,5.80
2024-01-07T19:16:19.022Z,8.60
2024-01-07T19:18:47.386Z,4.70
2024-01-07T19:21:18.082Z,6.00
2024-01-07T19:23:46.062Z,4.80
2024-01-07T19:26:14.296Z,4.80
2024-01-07T19:28:43.764Z,4.00
2024-01-07T19:31:12.108Z,4.30
2024-01-07T19:33:44.516Z,6.00
2024-01-07T19:36:13.046Z,3.50
2024-01-07T19:38:41.098Z,3.50
2024-01-07T19:41:09.188Z,3.90
2024-01-07T19:43:37.427Z,5.60
2024-01-07T19:46:05.476Z,5.10
2024-01-07T19:48:33.656Z,6.70
2024-01-07T19:51:01.951Z,5.30
2024-01-07T19:53:31.399Z,5.60
2024-01-07T19:56:03.332Z,4.20
2024-01-07T19:58:32.140Z,4.30
2024-01-07T20:01:00.293Z,3.30
2024-01-07T20:03:28.464Z,3.40
2024-01-07T20:05:56.610Z,2.00
2024-01-07T20:08:24.898Z,3.60
2024-01-07T20:10:54.094Z,4.30
2024-01-07T20:13:23.849Z,5.80
2024-01-07T20:15:51.964Z,5.50
2024-01-07T20:18:20.124Z,4.70
2024-01-07T20:20:48.585Z,4.60
2024-01-07T20:23:17.345Z,3.60
2024-01-07T20:25:47.674Z,2.50
2024-01-07T20:28:15.872Z,3.80
2024-01-07T20:30:44.181Z,3.80
2024-01-07T20:33:15.681Z,3.90
2024-01-07T20:35:44.798Z,2.50
2024-01-07T20:38:12.953Z,4.00
2024-01-07T20:40:41.096Z,3.00
2024-01-07T20:43:11.582Z,4.70
2024-01-07T20:45:40.019Z,4.90
2024-01-07T20:48:08.505Z,2.70
2024-01-07T20:50:38.920Z,4.20
2024-01-07T20:53:07.354Z,2.50
2024-01-07T20:55:36.129Z,3.20
2024-01-07T20:58:04.505Z,4.20
2024-01-07T21:00:33.627Z,3.10
2024-01-07T21:03:01.980Z,5.20
2024-01-07T21:05:30.950Z,3.70
2024-01-07T21:07:59.469Z,5.10
2024-01-07T21:10:28.435Z,3.80
2024-01-07T21:12:59.005Z,4.70
2024-01-07T21:15:27.374Z,5.00
2024-01-07T21:18:02.464Z,3.90
2024-01-07T21:20:31.654Z,4.20
2024-01-07T21:22:59.959Z,6.40
2024-01-07T21:25:30.320Z,3.60
2024-01-07T21:27:59.932Z,3.60
2024-01-07T21:30:28.397Z,4.20
2024-01-07T21:32:56.683Z,3.80
2024-01-07T21:35:25.013Z,2.10
2024-01-07T21:37:53.194Z,3.30
2024-01-07T21:40:21.350Z,4.20
2024-01-07T21:42:49.482Z,2.90
2024-01-07T21:45:17.742Z,4.10
2024-01-07T21:47:45.726Z,4.10
2024-01-07T21:50:14.199Z,2.80
2024-01-07T21:52:54.382Z,4.70
2024-01-07T21:55:22.931Z,3.30
2024-01-07T21:57:51.037Z,3.90
2024-01-07T22:00:19.387Z,3.40
2024-01-07T22:02:48.387Z,4.30
2024-01-07T22:05:16.729Z,2.80
2024-01-07T22:07:44.781Z,3.30
2024-01-07T22:10:12.904Z,4.90
2024-01-07T22:12:40.938Z,5.30
2024-01-07T22:15:10.004Z,4.90
2024-01-07T22:17:38.295Z,4.80
2024-01-07T22:20:09.636Z,3.50
2024-01-07T22:22:37.624Z,2.50
2024-01-07T22:25:06.492Z,3.30
2024-01-07T22:27:35.918Z,2.50
2024-01-07T22:30:05.285Z,4.40
2024-01-07T22:32:33.664Z,3.40
2024-01-07T22:35:02.203Z,2.70
2024-01-07T22:37:30.993Z,3.90
2024-01-07T22:39:58.953Z,4.00
2024-01-07T22:42:27.065Z,2.30
2024-01-07T22:44:55.045Z,2.40
2024-01-07T22:47:23.094Z,2.40
2024-01-07T22:49:51.451Z,3.00
2024-01-07T22:52:21.366Z,2.30
2024-01-07T22:54:51.023Z,2.80
2024-01-07T22:57:18.972Z,2.70
2024-01-07T22:59:47.233Z,2.20
2024-01-07T23:02:16.403Z,3.10
2024-01-07T23:04:44.961Z,3.20
2024-01-07T23:07:13.175Z,2.90
2024-01-07T23:09:42.467Z,3.60
2024-01-07T23:12:10.636Z,4.30
2024-01-07T23:14:38.818Z,3.90
2024-01-07T23:17:07.076Z,4.20
2024-01-07T23:19:35.291Z,2.30
2024-01-07T23:22:03.486Z,3.50
2024-01-07T23:24:32.162Z,4.20
2024-01-07T23:27:00.144Z,2.50
2024-01-07T23:29:28.512Z,4.20
2024-01-07T23:31:56.727Z,5.90
2024-01-07T23:34:24.952Z,2.70
2024-01-07T23:36:53.719Z,2.40
2024-01-07T23:39:21.661Z,4.60
2024-01-07T23:41:49.704Z,3.10
2024-01-07T23:44:17.830Z,3.20
2024-01-07T23:46:46.032Z,2.80
2024-01-07T23:49:13.981Z,2.40
2024-01-07T23:51:42.024Z,2.20
2024-01-07T23:54:10.517Z,3.60
2024-01-07T23:56:40.523Z,4.00
2024-01-07T23:59:08.783Z,3.20
